Time;durP1;ratioP1;P1;durP2;ratioP2;P2;SDS_P1;SDS_P2;PMS_P1;PMS_P2;Temp;Humidity;BMP_temperature;BMP_pressure;BME280_temperature;BME280_humidity;BME280_pressure;Samples;Min_cycle;Max_cycle;Signal;HPM_P1;HPM_P2
2022/11/16 00:01:14;;;;;;;5.57;4.97;;;;;;;-145.14;100.00;70583.66;5046244;28;20844;-73
2022/11/16 00:03:40;;;;;;;5.07;4.57;;;;;;;-145.14;100.00;70583.66;5045284;28;20442;-73
2022/11/16 00:06:07;;;;;;;6.20;4.70;;;;;;;-145.14;100.00;70583.66;5042318;28;20504;-73
2022/11/16 00:08:40;;;;;;;6.27;5.20;;;;;;;-145.14;100.00;70583.66;5039323;28;20777;-73
2022/11/16 00:11:09;;;;;;;6.13;4.77;;;;;;;-145.14;100.00;70583.66;5057152;28;20468;-72
2022/11/16 00:13:35;;;;;;;6.20;4.93;;;;;;;-145.14;100.00;70583.66;5045345;28;20989;-73
2022/11/16 00:16:01;;;;;;;6.93;5.10;;;;;;;-145.14;100.00;70583.66;5040407;28;20446;-73
2022/11/16 00:18:27;;;;;;;6.87;5.03;;;;;;;-145.14;100.00;70583.66;5040427;28;20438;-73
2022/11/16 00:20:53;;;;;;;7.00;4.83;;;;;;;-145.14;100.00;70583.66;5041068;28;20184;-73
2022/11/16 00:23:19;;;;;;;5.30;4.80;;;;;;;-145.14;100.00;70583.66;5040023;28;20475;-73
2022/11/16 00:25:45;;;;;;;6.80;4.80;;;;;;;-145.14;100.00;70583.66;5045951;28;20207;-73
2022/11/16 00:28:10;;;;;;;5.90;5.30;;;;;;;-145.14;100.00;70583.66;5039438;28;20591;-73
2022/11/16 00:30:36;;;;;;;5.60;4.70;;;;;;;-145.14;100.00;70583.66;5041934;28;20575;-72
2022/11/16 00:33:03;;;;;;;5.57;4.40;;;;;;;-145.14;100.00;70583.66;5038533;28;21449;-73
2022/11/16 00:35:28;;;;;;;6.77;4.67;;;;;;;-145.14;100.00;70583.66;5044775;28;20187;-72
2022/11/16 00:37:54;;;;;;;6.30;5.37;;;;;;;-145.14;100.00;70583.66;5044836;28;20449;-73
2022/11/16 00:40:19;;;;;;;4.40;4.00;;;;;;;-145.14;100.00;70583.66;5042780;28;20199;-72
2022/11/16 00:42:45;;;;;;;5.97;4.93;;;;;;;-145.14;100.00;70583.66;5040429;28;20211;-72
2022/11/16 00:45:10;;;;;;;5.03;4.40;;;;;;;-145.14;100.00;70583.66;5042856;28;20208;-72
2022/11/16 00:47:36;;;;;;;5.93;4.57;;;;;;;-145.14;100.00;70583.66;5038773;28;20188;-73
2022/11/16 00:50:02;;;;;;;8.13;5.00;;;;;;;-145.14;100.00;70583.66;5045545;28;20560;-72
2022/11/16 00:52:28;;;;;;;5.70;4.40;;;;;;;-145.14;100.00;70583.66;5040995;28;20492;-72
2022/11/16 00:54:53;;;;;;;5.90;4.37;;;;;;;-145.14;100.00;70583.66;5045696;28;20664;-72
2022/11/16 00:57:19;;;;;;;6.17;4.93;;;;;;;-145.14;100.00;70583.66;5045186;28;20192;-72
2022/11/16 00:59:44;;;;;;;5.50;4.60;;;;;;;-145.14;100.00;70583.66;5045289;28;20640;-72
2022/11/16 01:02:09;;;;;;;4.93;4.40;;;;;;;-145.14;100.00;70583.66;5043123;28;20219;-72
2022/11/16 01:04:35;;;;;;;5.30;4.80;;;;;;;-145.14;100.00;70583.66;5044686;28;20207;-73
2022/11/16 01:07:00;;;;;;;6.47;4.80;;;;;;;-145.14;100.00;70583.66;5046950;28;20199;-72
2022/11/16 01:09:26;;;;;;;6.00;5.40;;;;;;;-145.14;100.00;70583.66;5044137;28;20199;-72
2022/11/16 01:12:09;;;;;;;5.23;4.53;;;;;;;-145.14;100.00;70583.66;5045933;28;20210;-73
2022/11/16 01:14:36;;;;;;;5.03;4.53;;;;;;;-145.14;100.00;70583.66;5036864;28;20183;-72
2022/11/16 01:17:03;;;;;;;5.27;4.33;;;;;;;-145.14;100.00;70583.66;5033069;28;20985;-73
2022/11/16 01:19:28;;;;;;;5.87;4.40;;;;;;;-145.14;100.00;70583.66;5037527;28;20441;-73
2022/11/16 01:21:53;;;;;;;5.23;4.73;;;;;;;-145.14;100.00;70583.66;5039836;28;20478;-73
2022/11/16 01:24:19;;;;;;;5.23;4.70;;;;;;;-145.14;100.00;70583.66;5041704;28;20211;-73
2022/11/16 01:26:44;;;;;;;4.80;4.37;;;;;;;-145.14;100.00;70583.66;5041854;28;20188;-73
2022/11/16 01:29:10;;;;;;;6.00;4.40;;;;;;;-145.14;100.00;70583.66;5044260;28;20649;-73
2022/11/16 01:31:35;;;;;;;5.27;4.57;;;;;;;-145.14;100.00;70583.66;5043046;28;20219;-73
2022/11/16 01:34:01;;;;;;;5.87;4.70;;;;;;;-145.14;100.00;70583.66;5045627;28;20184;-73
2022/11/16 01:36:26;;;;;;;6.40;4.90;;;;;;;-145.14;100.00;70583.66;5045936;28;20891;-73
2022/11/16 01:38:52;;;;;;;4.13;3.70;;;;;;;-145.14;100.00;70583.66;5038976;28;20204;-73
2022/11/16 01:41:21;;;;;;;4.47;4.07;;;;;;;-145.14;100.00;70583.66;5042074;28;20299;-73
2022/11/16 01:43:53;;;;;;;4.57;4.10;;;;;;;-145.14;100.00;70583.66;5049353;28;20607;-73
2022/11/16 01:46:18;;;;;;;5.40;4.63;;;;;;;-145.14;100.00;70583.66;5037395;28;20440;-73
2022/11/16 01:48:45;;;;;;;4.87;3.77;;;;;;;-145.14;100.00;70583.66;5043442;28;20434;-73
2022/11/16 01:51:11;;;;;;;5.00;3.90;;;;;;;-145.14;100.00;70583.66;5037288;28;20683;-73
2022/11/16 01:53:36;;;;;;;5.53;4.00;;;;;;;-145.14;100.00;70583.66;5039229;28;20434;-73
2022/11/16 01:56:03;;;;;;;4.87;4.20;;;;;;;-145.14;100.00;70583.66;5042204;28;20755;-73
2022/11/16 01:58:28;;;;;;;5.47;4.47;;;;;;;-145.14;100.00;70583.66;5041509;28;20197;-74
2022/11/16 02:00:54;;;;;;;5.23;4.47;;;;;;;-145.14;100.00;70583.66;5038524;28;20470;-73
2022/11/16 02:03:20;;;;;;;5.63;4.97;;;;;;;-145.14;100.00;70583.66;5041194;28;20683;-73
2022/11/16 02:05:48;;;;;;;6.20;4.10;;;;;;;-145.14;100.00;70583.66;5042800;28;20249;-73
2022/11/16 02:11:17;;;;;;;5.03;4.53;;;;;;;-145.14;100.00;70583.66;5037429;28;20475;-73
2022/11/16 02:13:57;;;;;;;5.33;4.63;;;;;;;-145.14;100.00;70583.66;5044102;28;20434;-73
2022/11/16 02:16:33;;;;;;;5.50;4.10;;;;;;;-145.14;100.00;70583.66;5040147;28;20801;-73
2022/11/16 02:19:29;;;;;;;4.50;4.10;;;;;;;-145.14;100.00;70583.66;5040996;28;20531;-73
2022/11/16 02:22:22;;;;;;;5.00;4.20;;;;;;;-145.14;100.00;70583.66;5042909;28;20454;-73
2022/11/16 02:24:59;;;;;;;4.27;3.87;;;;;;;-145.14;100.00;70583.66;5038543;28;20471;-73
2022/11/16 02:27:46;;;;;;;8.03;4.57;;;;;;;-145.14;100.00;70583.66;5040486;28;20442;-73
2022/11/16 02:30:12;;;;;;;7.23;4.47;;;;;;;-145.14;100.00;70583.66;5033943;28;20590;-73
2022/11/16 02:32:51;;;;;;;4.33;3.93;;;;;;;-145.14;100.00;70583.66;5034487;28;20919;-74
2022/11/16 02:35:23;;;;;;;5.73;3.80;;;;;;;-145.14;100.00;70583.66;5033353;28;20435;-73
2022/11/16 02:37:57;;;;;;;6.67;4.37;;;;;;;-145.14;100.00;70583.66;5037416;28;20434;-73
2022/11/16 02:40:25;;;;;;;5.03;4.40;;;;;;;-145.14;100.00;70583.66;5032278;28;20482;-73
2022/11/16 02:42:57;;;;;;;3.60;3.30;;;;;;;-145.14;100.00;70583.66;5033875;28;20569;-73
2022/11/16 02:45:28;;;;;;;4.57;3.90;;;;;;;-145.14;100.00;70583.66;5037549;28;21049;-73
2022/11/16 02:48:00;;;;;;;4.50;4.10;;;;;;;-145.14;100.00;70583.66;5034549;28;20532;-73
2022/11/16 02:50:26;;;;;;;4.43;3.70;;;;;;;-145.14;100.00;70583.66;5040968;28;20446;-73
2022/11/16 02:52:51;;;;;;;6.50;4.37;;;;;;;-145.14;100.00;70583.66;5034693;28;20603;-73
2022/11/16 02:55:17;;;;;;;5.80;4.10;;;;;;;-145.14;100.00;70583.66;5036738;28;20927;-73
2022/11/16 02:57:57;;;;;;;4.63;4.00;;;;;;;-145.14;100.00;70583.66;5037913;28;20203;-73
2022/11/16 03:00:49;;;;;;;5.53;4.07;;;;;;;-145.14;100.00;70583.66;5035923;28;20213;-73
2022/11/16 03:03:32;;;;;;;5.17;4.20;;;;;;;-145.14;100.00;70583.66;5026729;28;20453;-73
2022/11/16 03:06:16;;;;;;;5.27;4.40;;;;;;;-145.14;100.00;70583.66;5039914;28;20832;-73
2022/11/16 03:08:51;;;;;;;4.87;3.87;;;;;;;-145.14;100.00;70583.66;5038795;28;20442;-73
2022/11/16 03:14:15;;;;;;;4.83;4.40;;;;;;;-145.14;100.00;70583.66;5038173;28;21322;-73
2022/11/16 03:16:45;;;;;;;6.80;4.33;;;;;;;-145.14;100.00;70583.66;5031130;28;20434;-73
2022/11/16 03:19:15;;;;;;;5.67;4.10;;;;;;;-145.14;100.00;70583.66;5027876;28;20536;-73
2022/11/16 03:21:47;;;;;;;4.43;4.03;;;;;;;-145.14;100.00;70583.66;5033996;28;20493;-73
2022/11/16 03:24:13;;;;;;;5.67;3.83;;;;;;;-145.14;100.00;70583.66;5035535;28;20466;-73
2022/11/16 03:27:03;;;;;;;5.03;4.40;;;;;;;-145.14;100.00;70583.66;5036698;28;20442;-73
2022/11/16 03:29:32;;;;;;;4.90;3.93;;;;;;;-145.14;100.00;70583.66;5036091;28;20545;-73
2022/11/16 03:32:16;;;;;;;5.60;4.50;;;;;;;-145.14;100.00;70583.66;5033748;28;20472;-73
2022/11/16 03:34:54;;;;;;;5.00;3.77;;;;;;;-145.14;100.00;70583.66;5033952;28;20442;-73
2022/11/16 03:37:21;;;;;;;5.17;4.63;;;;;;;-145.14;100.00;70583.66;5031010;28;20434;-73
2022/11/16 03:39:48;;;;;;;7.10;4.40;;;;;;;-145.14;100.00;70583.66;5027471;28;20445;-73
2022/11/16 03:42:15;;;;;;;5.70;4.10;;;;;;;-145.14;100.00;70583.66;5037993;28;20472;-73
2022/11/16 03:44:43;;;;;;;5.10;3.87;;;;;;;-145.14;100.00;70583.66;5040509;28;20552;-73
2022/11/16 03:47:11;;;;;;;4.23;3.80;;;;;;;-145.14;100.00;70583.66;5036315;28;20438;-72
2022/11/16 03:49:36;;;;;;;5.07;4.57;;;;;;;-145.14;100.00;70583.66;5037109;28;20522;-73
2022/11/16 03:52:02;;;;;;;6.10;4.47;;;;;;;-145.14;100.00;70583.66;5039278;28;21045;-73
2022/11/16 03:54:27;;;;;;;5.43;4.20;;;;;;;-145.14;100.00;70583.66;5035746;28;20180;-73
2022/11/16 03:56:53;;;;;;;5.87;4.50;;;;;;;-145.14;100.00;70583.66;5038163;28;20191;-72
2022/11/16 03:59:18;;;;;;;5.80;4.50;;;;;;;-145.14;100.00;70583.66;5042912;28;20644;-72
2022/11/16 04:01:44;;;;;;;4.90;4.40;;;;;;;-145.14;100.00;70583.66;5036639;28;20751;-72
2022/11/16 04:24:10;;;;;;;6.50;4.87;;;;;;;-145.14;100.00;70583.66;5037977;28;20733;-73
2022/11/16 04:26:07;;;;;;;5.33;4.73;;;;;;;-145.14;100.00;70583.66;5039566;28;20500;-72
2022/11/16 04:28:33;;;;;;;8.33;5.63;;;;;;;-145.14;100.00;70583.66;5037471;28;20438;-73
2022/11/16 04:39:13;;;;;;;7.10;5.07;;;;;;;-145.14;100.00;70583.66;5045758;28;20450;-73
2022/11/16 04:44:22;;;;;;;6.30;5.70;;;;;;;-145.14;100.00;70583.66;5038903;28;20224;-72
2022/11/16 04:47:06;;;;;;;6.10;5.20;;;;;;;-145.14;100.00;70583.66;5037232;28;20433;-73
2022/11/16 04:49:32;;;;;;;6.80;4.90;;;;;;;-145.14;100.00;70583.66;5040087;28;20180;-73
2022/11/16 04:51:57;;;;;;;4.63;4.23;;;;;;;-145.14;100.00;70583.66;5042947;28;20539;-72
2022/11/16 04:54:23;;;;;;;5.70;5.07;;;;;;;-145.14;100.00;70583.66;5043128;28;20218;-72
2022/11/16 04:56:48;;;;;;;7.30;5.30;;;;;;;-145.14;100.00;70583.66;5037751;28;20222;-73
2022/11/16 04:59:14;;;;;;;7.10;5.70;;;;;;;-145.14;100.00;70583.66;5036601;28;20209;-73
2022/11/16 05:04:24;;;;;;;6.37;5.70;;;;;;;-145.14;100.00;70583.66;5041758;28;20480;-72
2022/11/16 05:06:49;;;;;;;8.33;5.80;;;;;;;-145.14;100.00;70583.66;5036956;28;20434;-72
2022/11/16 05:09:15;;;;;;;6.50;5.30;;;;;;;-145.14;100.00;70583.66;5039105;28;20184;-73
2022/11/16 05:11:40;;;;;;;6.80;6.00;;;;;;;-145.14;100.00;70583.66;5046029;28;20207;-73
2022/11/16 05:14:08;;;;;;;9.53;6.07;;;;;;;-145.14;100.00;70583.66;5038162;28;20191;-72
2022/11/16 05:16:33;;;;;;;6.97;6.17;;;;;;;-145.14;100.00;70583.66;5036147;28;20188;-72
2022/11/16 05:21:43;;;;;;;6.00;5.40;;;;;;;-145.14;100.00;70583.66;5040164;28;20723;-73
2022/11/16 05:26:53;;;;;;;10.77;6.80;;;;;;;-145.14;100.00;70583.66;5038754;28;20191;-73
2022/11/16 05:29:18;;;;;;;8.77;6.10;;;;;;;-145.14;100.00;70583.66;5030768;28;20446;-72
2022/11/16 05:31:43;;;;;;;7.00;6.30;;;;;;;-145.14;100.00;70583.66;5024105;28;20199;-73
2022/11/16 05:34:09;;;;;;;7.50;6.30;;;;;;;-145.14;100.00;70583.66;5028235;28;20191;-72
2022/11/16 05:36:35;;;;;;;7.53;6.77;;;;;;;-145.14;100.00;70583.66;5037757;28;21517;-73
2022/11/16 05:39:00;;;;;;;7.40;5.60;;;;;;;-145.14;100.00;70583.66;5037036;28;20708;-73
2022/11/16 05:41:26;;;;;;;8.73;6.50;;;;;;;-145.14;100.00;70583.66;5037853;28;20895;-73
2022/11/16 05:43:52;;;;;;;7.90;6.50;;;;;;;-145.14;100.00;70583.66;5036349;28;20184;-72
2022/11/16 05:46:17;;;;;;;8.20;6.30;;;;;;;-145.14;100.00;70583.66;5035935;28;20187;-73
2022/11/16 05:48:43;;;;;;;8.63;7.10;;;;;;;-145.14;100.00;70583.66;5038832;28;20981;-73
2022/11/16 05:51:08;;;;;;;7.40;6.23;;;;;;;-145.14;100.00;70583.66;5032545;28;20211;-73
2022/11/16 05:53:34;;;;;;;11.00;6.50;;;;;;;-145.14;100.00;70583.66;5040152;28;20576;-73
2022/11/16 05:55:59;;;;;;;7.43;6.70;;;;;;;-145.14;100.00;70583.66;5041118;28;20911;-73
2022/11/16 05:58:24;;;;;;;8.37;6.60;;;;;;;-145.14;100.00;70583.66;5032326;28;20194;-73
2022/11/16 06:00:50;;;;;;;7.50;6.70;;;;;;;-145.14;100.00;70583.66;5035098;28;20191;-73
2022/11/16 06:03:15;;;;;;;8.57;5.90;;;;;;;-145.14;100.00;70583.66;5040915;28;20865;-72
2022/11/16 06:05:41;;;;;;;8.37;7.23;;;;;;;-145.14;100.00;70583.66;5038783;28;20680;-73
2022/11/16 06:08:07;;;;;;;7.77;6.97;;;;;;;-145.14;100.00;70583.66;5033462;28;20180;-73
2022/11/16 06:10:32;;;;;;;8.00;7.10;;;;;;;-145.14;100.00;70583.66;5036562;28;20641;-72
2022/11/16 06:12:58;;;;;;;10.20;7.00;;;;;;;-145.14;100.00;70583.66;5036377;28;20218;-72
2022/11/16 06:15:23;;;;;;;8.43;7.00;;;;;;;-145.14;100.00;70583.66;5027254;28;20203;-73
2022/11/16 06:17:49;;;;;;;7.17;6.23;;;;;;;-145.14;100.00;70583.66;5037194;28;21025;-72
2022/11/16 06:20:14;;;;;;;7.20;6.50;;;;;;;-145.14;100.00;70583.66;5038395;28;20190;-73
2022/11/16 06:22:40;;;;;;;8.13;6.30;;;;;;;-145.14;100.00;70583.66;5045790;28;20204;-73
2022/11/16 06:25:05;;;;;;;7.77;6.97;;;;;;;-145.14;100.00;70583.66;5031562;28;20719;-74
2022/11/16 06:27:31;;;;;;;7.23;6.40;;;;;;;-145.14;100.00;70583.66;5035593;28;20731;-73
2022/11/16 06:29:57;;;;;;;7.70;7.00;;;;;;;-145.14;100.00;70583.66;5031824;28;20270;-73
2022/11/16 06:32:22;;;;;;;7.17;6.47;;;;;;;-145.14;100.00;70583.66;5031800;28;20196;-73
2022/11/16 06:34:48;;;;;;;8.13;6.93;;;;;;;-145.14;100.00;70583.66;5037210;28;20183;-73
2022/11/16 06:37:13;;;;;;;7.60;6.30;;;;;;;-145.14;100.00;70583.66;5045562;28;20852;-74
2022/11/16 06:39:38;;;;;;;7.63;6.93;;;;;;;-145.14;100.00;70583.66;5043248;28;20652;-74
2022/11/16 06:42:04;;;;;;;6.57;6.00;;;;;;;-145.14;100.00;70583.66;5036986;28;20291;-74
2022/11/16 06:44:32;;;;;;;7.20;6.47;;;;;;;-145.14;100.00;70583.66;5040479;28;20250;-73
2022/11/16 06:46:57;;;;;;;7.10;6.40;;;;;;;-145.14;100.00;70583.66;5055068;28;20192;-73
2022/11/16 06:49:22;;;;;;;7.17;6.20;;;;;;;-145.14;100.00;70583.66;5034400;28;20442;-73
2022/11/16 06:51:48;;;;;;;6.97;6.27;;;;;;;-145.14;100.00;70583.66;5040667;28;20203;-73
2022/11/16 06:54:13;;;;;;;7.60;6.77;;;;;;;-145.14;100.00;70583.66;5048127;28;20559;-74
2022/11/16 06:56:39;;;;;;;12.80;9.13;;;;;;;-145.14;100.00;70583.66;5044783;28;20570;-74
2022/11/16 06:59:04;;;;;;;7.77;7.07;;;;;;;-145.14;100.00;70583.66;5043534;28;20188;-73
2022/11/16 07:01:30;;;;;;;7.93;7.13;;;;;;;-145.14;100.00;70583.66;5042609;28;20203;-73
2022/11/16 07:03:56;;;;;;;9.93;6.40;;;;;;;-145.14;100.00;70583.66;5045918;28;20186;-73
2022/11/16 07:06:21;;;;;;;8.30;7.10;;;;;;;-145.14;100.00;70583.66;5044227;28;20275;-74
2022/11/16 07:08:47;;;;;;;7.70;6.90;;;;;;;-145.14;100.00;70583.66;5043947;28;20951;-74
2022/11/16 07:11:12;;;;;;;8.17;7.37;;;;;;;-145.14;100.00;70583.66;5043856;28;20207;-73
2022/11/16 07:13:38;;;;;;;7.03;6.33;;;;;;;-145.14;100.00;70583.66;5045331;28;20183;-73
2022/11/16 07:16:06;;;;;;;7.60;6.80;;;;;;;-145.14;100.00;70583.66;5043235;28;20520;-74
2022/11/16 07:18:33;;;;;;;7.13;6.43;;;;;;;-145.14;100.00;70583.66;5044725;28;20889;-74
2022/11/16 07:21:14;;;;;;;7.30;6.33;;;;;;;-145.14;100.00;70583.66;5047298;28;20511;-73
2022/11/16 07:23:39;;;;;;;6.67;6.07;;;;;;;-145.14;100.00;70583.66;5046623;28;21233;-73
2022/11/16 07:26:06;;;;;;;7.20;6.50;;;;;;;-145.14;100.00;70583.66;5047076;28;20462;-73
2022/11/16 07:28:32;;;;;;;6.60;6.00;;;;;;;-145.14;100.00;70583.66;5045769;28;20464;-74
2022/11/16 07:31:06;;;;;;;7.80;6.57;;;;;;;-145.14;100.00;70583.66;5045352;28;20493;-73
2022/11/16 07:33:31;;;;;;;7.27;6.57;;;;;;;-145.14;100.00;70583.66;5043772;28;20180;-74
2022/11/16 07:36:08;;;;;;;9.30;5.60;;;;;;;-145.14;100.00;70583.66;5047244;28;20411;-73
2022/11/16 07:38:34;;;;;;;6.73;6.03;;;;;;;-145.14;100.00;70583.66;5042291;28;20207;-74
2022/11/16 07:41:10;;;;;;;7.50;6.70;;;;;;;-145.14;100.00;70583.66;5046145;28;20497;-74
2022/11/16 07:43:36;;;;;;;7.80;7.10;;;;;;;-145.14;100.00;70583.66;5045653;28;20414;-73
2022/11/16 07:46:08;;;;;;;7.20;6.50;;;;;;;-145.14;100.00;70583.66;5044593;28;21151;-74
2022/11/16 07:48:34;;;;;;;7.30;6.70;;;;;;;-145.14;100.00;70583.66;5044847;28;20186;-74
2022/11/16 07:51:03;;;;;;;8.57;6.80;;;;;;;-145.14;100.00;70583.66;5038489;28;20957;-74
2022/11/16 07:53:29;;;;;;;7.30;5.80;;;;;;;-145.14;100.00;70583.66;5045672;28;20188;-73
2022/11/16 07:55:55;;;;;;;7.67;6.87;;;;;;;-145.14;100.00;70583.66;5042069;28;20439;-74
2022/11/16 07:58:20;;;;;;;7.10;6.40;;;;;;;-145.14;100.00;70583.66;5044390;28;20837;-74
2022/11/16 08:00:46;;;;;;;7.30;6.60;;;;;;;-145.14;100.00;70583.66;5043621;28;20184;-74
2022/11/16 08:03:11;;;;;;;7.67;6.57;;;;;;;-145.14;100.00;70583.66;5043426;28;20188;-73
2022/11/16 08:05:37;;;;;;;7.80;6.40;;;;;;;-145.14;100.00;70583.66;5047316;28;20771;-73
2022/11/16 08:08:03;;;;;;;6.87;6.13;;;;;;;-145.14;100.00;70583.66;5043387;28;20187;-74
2022/11/16 08:10:29;;;;;;;7.20;6.60;;;;;;;-145.14;100.00;70583.66;5042958;28;20186;-73
2022/11/16 08:12:55;;;;;;;10.53;6.10;;;;;;;-145.14;100.00;70583.66;5048318;28;20441;-73
2022/11/16 08:15:21;;;;;;;7.47;6.77;;;;;;;-145.14;100.00;70583.66;5044212;28;20958;-73
2022/11/16 08:17:47;;;;;;;7.70;7.00;;;;;;;-145.14;100.00;70583.66;5039135;28;20438;-73
2022/11/16 08:20:12;;;;;;;7.10;6.40;;;;;;;-145.14;100.00;70583.66;5044415;28;20987;-73
2022/11/16 08:22:38;;;;;;;7.03;6.33;;;;;;;-145.14;100.00;70583.66;5048523;28;20199;-73
2022/11/16 08:25:04;;;;;;;8.80;6.20;;;;;;;-145.14;100.00;70583.66;5047120;28;20624;-73
2022/11/16 08:27:31;;;;;;;8.13;7.30;;;;;;;-145.14;100.00;70583.66;5048814;28;20191;-73
2022/11/16 08:29:56;;;;;;;8.27;7.47;;;;;;;-145.14;100.00;70583.66;5059205;28;20434;-74
2022/11/16 08:32:22;;;;;;;7.30;6.50;;;;;;;-145.14;100.00;70583.66;5048714;28;20965;-73
2022/11/16 08:34:47;;;;;;;6.83;6.23;;;;;;;-145.14;100.00;70583.66;5045780;28;20684;-73
2022/11/16 08:37:12;;;;;;;7.37;6.67;;;;;;;-145.14;100.00;70583.66;5049595;28;20258;-73
2022/11/16 08:39:38;;;;;;;7.63;6.93;;;;;;;-145.14;100.00;70583.66;5044723;28;20199;-74
2022/11/16 08:42:03;;;;;;;7.70;7.00;;;;;;;-145.14;100.00;70583.66;5049421;28;20634;-73
2022/11/16 08:44:29;;;;;;;8.40;7.53;;;;;;;-145.14;100.00;70583.66;5046365;28;20222;-73
2022/11/16 08:46:54;;;;;;;8.53;7.73;;;;;;;-145.14;100.00;70583.66;5047475;28;20219;-73
2022/11/16 08:49:20;;;;;;;8.93;8.13;;;;;;;-145.14;100.00;70583.66;5047699;28;20234;-73
2022/11/16 08:51:45;;;;;;;9.40;7.97;;;;;;;-145.14;100.00;70583.66;5043470;28;22877;-74
2022/11/16 08:54:11;;;;;;;8.47;7.67;;;;;;;-145.14;100.00;70583.66;5048447;28;20194;-73
2022/11/16 08:56:36;;;;;;;7.60;6.90;;;;;;;-145.14;100.00;70583.66;5042128;28;20191;-74
2022/11/16 08:59:02;;;;;;;8.57;6.83;;;;;;;-145.14;100.00;70583.66;5048041;28;20184;-74
2022/11/16 09:01:30;;;;;;;8.13;7.33;;;;;;;-145.14;100.00;70583.66;5045191;28;20395;-74
2022/11/16 09:03:56;;;;;;;6.87;6.27;;;;;;;-145.14;100.00;70583.66;5048086;28;20176;-73
2022/11/16 09:06:23;;;;;;;6.87;6.10;;;;;;;-145.14;100.00;70583.66;5049141;28;20980;-74
2022/11/16 09:08:48;;;;;;;7.47;6.77;;;;;;;-145.14;100.00;70583.66;5045989;28;20626;-73
2022/11/16 09:11:20;;;;;;;7.90;7.10;;;;;;;-145.14;100.00;70583.66;5042250;28;20977;-74
2022/11/16 09:13:48;;;;;;;7.00;6.40;;;;;;;-145.14;100.00;70583.66;5037580;28;20570;-74
2022/11/16 09:16:15;;;;;;;6.40;5.80;;;;;;;-145.14;100.00;70583.66;5041722;28;20467;-73
2022/11/16 09:18:41;;;;;;;6.10;5.50;;;;;;;-145.14;100.00;70583.66;5044065;28;20853;-74
2022/11/16 09:21:07;;;;;;;7.37;6.27;;;;;;;-145.14;100.00;70583.66;5047230;28;20474;-73
2022/11/16 09:23:32;;;;;;;7.97;5.10;;;;;;;-145.14;100.00;70583.66;5049222;28;20872;-73
2022/11/16 09:26:05;;;;;;;5.77;5.27;;;;;;;-145.14;100.00;70583.66;5047294;28;20230;-74
2022/11/16 09:28:30;;;;;;;6.30;5.70;;;;;;;-145.14;100.00;70583.66;5044932;28;20188;-74
2022/11/16 09:31:00;;;;;;;5.63;5.13;;;;;;;-145.14;100.00;70583.66;5047315;28;20516;-74
2022/11/16 09:33:29;;;;;;;6.20;5.57;;;;;;;-145.14;100.00;70583.66;5046883;28;21123;-74
2022/11/16 09:35:54;;;;;;;7.60;6.90;;;;;;;-145.14;100.00;70583.66;5046675;28;21257;-74
2022/11/16 09:38:20;;;;;;;8.50;7.60;;;;;;;-145.14;100.00;70583.66;5046850;28;20487;-74
2022/11/16 09:40:46;;;;;;;6.87;6.20;;;;;;;-145.14;100.00;70583.66;5049392;28;20652;-74
2022/11/16 09:43:23;;;;;;;7.20;5.97;;;;;;;-145.14;100.00;70583.66;5045904;28;20214;-74
2022/11/16 09:46:14;;;;;;;8.50;7.60;;;;;;;-145.14;100.00;70583.66;5046842;28;20478;-74
2022/11/16 09:48:40;;;;;;;9.20;7.00;;;;;;;-145.14;100.00;70583.66;5046489;28;20402;-74
2022/11/16 09:51:11;;;;;;;9.20;8.23;;;;;;;-145.14;100.00;70583.66;5047916;28;20508;-74
2022/11/16 09:53:43;;;;;;;8.87;8.00;;;;;;;-145.14;100.00;70583.66;5046207;28;20706;-74
2022/11/16 09:56:18;;;;;;;7.53;6.83;;;;;;;-145.14;100.00;70583.66;5047231;28;20950;-74
2022/11/16 09:59:13;;;;;;;9.10;8.30;;;;;;;-145.14;100.00;70583.66;5046723;28;20445;-74
2022/11/16 10:01:47;;;;;;;8.97;7.83;;;;;;;-145.14;100.00;70583.66;5046453;28;20476;-74
2022/11/16 10:04:22;;;;;;;8.20;7.27;;;;;;;-145.14;100.00;70583.66;5047560;28;20413;-74
2022/11/16 10:07:13;;;;;;;7.20;6.50;;;;;;;-145.14;100.00;70583.66;5046725;28;20430;-74
2022/11/16 10:09:39;;;;;;;7.33;6.63;;;;;;;-145.14;100.00;70583.66;5022570;28;20442;-74
2022/11/16 10:12:11;;;;;;;8.10;7.30;;;;;;;-145.14;100.00;70583.66;5047361;28;20453;-74
2022/11/16 10:15:03;;;;;;;7.27;6.63;;;;;;;-145.14;100.00;70583.66;5044001;28;20191;-74
2022/11/16 10:17:53;;;;;;;7.23;6.53;;;;;;;-145.14;100.00;70583.66;5047041;28;20964;-74
2022/11/16 10:20:47;;;;;;;9.23;6.27;;;;;;;-145.14;100.00;70583.66;5045624;28;20549;-74
2022/11/16 10:23:34;;;;;;;8.57;7.67;;;;;;;-145.14;100.00;70583.66;5044951;28;20962;-74
2022/11/16 10:26:14;;;;;;;7.17;6.57;;;;;;;-145.14;100.00;70583.66;5047096;28;20942;-74
2022/11/16 10:28:42;;;;;;;6.00;5.50;;;;;;;-145.14;100.00;70583.66;5045795;28;20414;-74
2022/11/16 10:31:44;;;;;;;7.40;6.57;;;;;;;-145.14;100.00;70583.66;5045004;28;20531;-74
2022/11/16 10:34:19;;;;;;;7.50;6.87;;;;;;;-145.14;100.00;70583.66;5044908;28;20472;-74
2022/11/16 10:36:44;;;;;;;8.03;7.33;;;;;;;-145.14;100.00;70583.66;5044418;28;20521;-74
2022/11/16 10:39:13;;;;;;;9.03;7.70;;;;;;;-145.14;100.00;70583.66;5044238;28;21061;-74
2022/11/16 10:41:45;;;;;;;8.00;7.30;;;;;;;-145.14;100.00;70583.66;5055189;28;20226;-74
2022/11/16 10:44:33;;;;;;;7.53;6.83;;;;;;;-145.14;100.00;70583.66;5039441;28;20792;-74
2022/11/16 10:47:05;;;;;;;9.33;7.83;;;;;;;-145.14;100.00;70583.66;5044432;28;20445;-74
2022/11/16 10:49:40;;;;;;;8.70;7.90;;;;;;;-145.14;100.00;70583.66;5039750;28;20434;-74
2022/11/16 10:52:05;;;;;;;8.23;7.40;;;;;;;-145.14;100.00;70583.66;5045305;28;20453;-74
2022/11/16 10:54:31;;;;;;;8.23;7.47;;;;;;;-145.14;100.00;70583.66;5044086;28;20438;-74
2022/11/16 10:57:04;;;;;;;8.33;7.53;;;;;;;-145.14;100.00;70583.66;5048129;28;20264;-74
2022/11/16 10:59:42;;;;;;;8.47;7.67;;;;;;;-145.14;100.00;70583.66;5040473;28;20757;-74
2022/11/16 11:02:31;;;;;;;8.27;7.43;;;;;;;-145.14;100.00;70583.66;5040588;28;20476;-74
2022/11/16 11:05:01;;;;;;;7.30;6.57;;;;;;;-145.14;100.00;70583.66;5041558;28;20454;-74
2022/11/16 11:07:38;;;;;;;7.57;6.87;;;;;;;-145.14;100.00;70583.66;5038730;28;21524;-74
2022/11/16 11:10:25;;;;;;;6.27;5.67;;;;;;;-145.14;100.00;70583.66;5044208;28;20426;-74
2022/11/16 11:13:11;;;;;;;6.60;6.00;;;;;;;-145.14;100.00;70583.66;5039518;28;20446;-74
2022/11/16 11:15:39;;;;;;;9.60;5.70;;;;;;;-145.14;100.00;70583.66;5034867;28;20426;-74
2022/11/16 11:18:23;;;;;;;6.87;6.27;;;;;;;-145.14;100.00;70583.66;5032191;28;20485;-75
2022/11/16 11:21:19;;;;;;;6.40;5.80;;;;;;;-145.14;100.00;70583.66;5036761;28;20468;-74
2022/11/16 11:23:51;;;;;;;6.20;5.60;;;;;;;-145.14;100.00;70583.66;5045608;28;20422;-74
2022/11/16 11:26:22;;;;;;;6.17;5.57;;;;;;;-145.14;100.00;70583.66;5041960;28;20458;-74
2022/11/16 11:28:48;;;;;;;6.27;5.77;;;;;;;-145.14;100.00;70583.66;5042027;28;20454;-74
2022/11/16 11:31:26;;;;;;;6.30;5.70;;;;;;;-145.14;100.00;70583.66;5044237;28;20469;-74
2022/11/16 11:33:56;;;;;;;6.30;5.70;;;;;;;-145.14;100.00;70583.66;5045180;28;20258;-74
2022/11/16 11:36:25;;;;;;;6.23;5.60;;;;;;;-145.14;100.00;70583.66;5046698;28;20419;-74
2022/11/16 11:39:04;;;;;;;7.20;6.53;;;;;;;-145.14;100.00;70583.66;5044195;28;20838;-74
2022/11/16 11:41:35;;;;;;;7.80;7.10;;;;;;;-145.14;100.00;70583.66;5039598;28;20457;-74
2022/11/16 11:44:02;;;;;;;7.90;6.50;;;;;;;-145.14;100.00;70583.66;5043729;28;20460;-74
2022/11/16 11:46:29;;;;;;;7.63;6.67;;;;;;;-145.14;100.00;70583.66;5042513;28;20524;-74
2022/11/16 11:49:17;;;;;;;7.40;6.70;;;;;;;-145.14;100.00;70583.66;5041008;28;20442;-74
2022/11/16 11:51:45;;;;;;;6.67;6.07;;;;;;;-145.14;100.00;70583.66;5038977;28;20482;-74
2022/11/16 11:54:23;;;;;;;6.70;6.00;;;;;;;-145.14;100.00;70583.66;5037525;28;20438;-74
2022/11/16 11:56:49;;;;;;;6.47;5.90;;;;;;;-145.14;100.00;70583.66;5041596;28;20507;-74
2022/11/16 11:59:21;;;;;;;6.37;5.77;;;;;;;-145.14;100.00;70583.66;5039247;28;21155;-74
2022/11/16 12:02:13;;;;;;;6.40;5.87;;;;;;;-145.14;100.00;70583.66;5033580;28;20215;-74
2022/11/16 12:04:55;;;;;;;7.17;6.47;;;;;;;-145.14;100.00;70583.66;5039313;28;21039;-74